Terminal Aerodrome Forecast
Issued by NWS

Home | Current Version | Previous Version | Graphics & Text | Print | Product List | Glossary On
Versions: 1 2 3 4 5 6 7 8 9 10 11 12 13 14
559
FTUS43 KIWX 222323
TAFSBN
TAF
KSBN 222323Z 2300/2324 21013KT P6SM SCT040 BKN080
     FM230600 21012KT P6SM -SHRA VCTS BKN025CB
      TEMPO 2310/2312 4SM -TSRA BKN015CB
     FM231300 25008KT P6SM OVC015
     FM231700 30010KT P6SM BKN025=

USA.gov is the U.S. government's official web portal to all federal, state and local government web resources and services.